createdAt,value
2023-03-23T15:57:51.988Z,9.65
2023-03-23T16:00:20.013Z,5.35
2023-03-23T16:02:47.824Z,5.65
2023-03-23T16:05:15.064Z,9.50
2023-03-23T16:07:41.791Z,4.90
2023-03-23T16:10:14.436Z,5.05
2023-03-23T16:12:41.157Z,5.85
2023-03-23T16:15:09.283Z,7.70
2023-03-23T16:17:35.928Z,7.53
2023-03-23T16:20:04.253Z,5.70
2023-03-23T16:22:30.984Z,7.00
2023-03-23T16:24:57.667Z,8.73
2023-03-23T16:27:24.272Z,9.70
2023-03-23T16:30:02.920Z,9.40
2023-03-23T16:32:31.225Z,8.45
2023-03-23T16:34:57.990Z,8.32
2023-03-23T16:37:24.686Z,9.25
2023-03-23T16:39:51.363Z,11.13
2023-03-23T16:42:18.075Z,10.32
2023-03-23T16:44:45.052Z,5.70
2023-03-23T16:47:11.793Z,11.38
2023-03-23T16:49:38.417Z,7.68
2023-03-23T16:52:05.251Z,59.15
2023-03-23T16:54:31.861Z,69.13
2023-03-23T16:56:58.588Z,63.45
2023-03-23T16:59:28.113Z,51.50
2023-03-23T17:01:54.879Z,41.63
2023-03-23T17:04:21.586Z,22.25
2023-03-23T17:06:49.086Z,11.95
2023-03-23T17:09:16.028Z,15.43
2023-03-23T17:11:42.633Z,7.95
2023-03-23T17:14:09.347Z,10.25
2023-03-23T17:16:35.999Z,15.00
2023-03-23T17:19:02.629Z,16.67
2023-03-23T17:21:29.246Z,15.63
2023-03-23T17:23:56.056Z,17.33
2023-03-23T17:26:22.847Z,51.03
2023-03-23T17:28:49.539Z,48.72
2023-03-23T17:31:16.334Z,54.97
2023-03-23T17:33:42.971Z,64.50
2023-03-23T17:36:09.729Z,51.92
2023-03-23T17:38:36.376Z,48.20
2023-03-23T17:41:05.586Z,41.92
2023-03-23T17:43:33.679Z,38.60
2023-03-23T17:46:00.458Z,41.70
2023-03-23T17:48:27.240Z,44.35
2023-03-23T17:50:55.428Z,61.15
2023-03-23T17:53:22.092Z,49.42
2023-03-23T17:55:48.720Z,43.85
2023-03-23T17:58:15.812Z,51.83
2023-03-23T18:00:42.506Z,27.23
2023-03-23T18:03:09.334Z,21.92
2023-03-23T18:05:38.366Z,26.52
2023-03-23T18:08:08.195Z,38.72
2023-03-23T18:10:36.619Z,33.63
2023-03-23T18:13:04.044Z,45.08
2023-03-23T18:15:30.994Z,39.72
2023-03-23T18:17:57.787Z,49.35
2023-03-23T18:20:24.468Z,35.63
2023-03-23T18:22:51.226Z,41.13
2023-03-23T18:25:17.965Z,38.58
2023-03-23T18:27:44.817Z,46.67
2023-03-23T18:30:11.807Z,39.72
2023-03-23T18:32:39.219Z,30.33
2023-03-23T18:35:06.934Z,18.90
2023-03-23T18:37:34.469Z,22.23
2023-03-23T18:40:01.550Z,24.50
2023-03-23T18:42:28.336Z,22.00
2023-03-23T18:44:55.161Z,24.50
2023-03-23T18:47:22.159Z,23.52
2023-03-23T18:49:53.839Z,18.92
2023-03-23T18:52:26.137Z,17.92
2023-03-23T18:54:53.666Z,24.00
2023-03-23T18:57:22.640Z,15.13
2023-03-23T18:59:49.575Z,13.60
2023-03-23T19:02:18.426Z,13.80
2023-03-23T19:04:46.045Z,16.50
2023-03-23T19:07:13.530Z,14.55
2023-03-23T19:09:43.680Z,12.90
2023-03-23T19:12:11.819Z,15.77
2023-03-23T19:14:42.064Z,16.58
2023-03-23T19:17:08.984Z,15.10
2023-03-23T19:19:35.862Z,13.30
2023-03-23T19:22:03.440Z,15.75
2023-03-23T19:24:30.456Z,12.80
2023-03-23T19:26:57.420Z,14.98
2023-03-23T19:29:27.083Z,19.00
2023-03-23T19:31:57.696Z,15.48
2023-03-23T19:34:25.237Z,13.15
2023-03-23T19:36:56.223Z,22.58
2023-03-23T19:39:29.838Z,21.73
2023-03-23T19:41:56.448Z,21.08
2023-03-23T19:44:23.515Z,19.73
2023-03-23T19:46:50.645Z,24.75
2023-03-23T19:49:17.818Z,18.00
2023-03-23T19:51:44.656Z,16.00
2023-03-23T19:54:13.230Z,19.83
2023-03-23T19:56:40.204Z,26.67
2023-03-23T19:59:10.581Z,31.77
2023-03-23T20:01:37.709Z,19.15
2023-03-23T20:04:05.463Z,23.23
2023-03-23T20:06:32.384Z,24.00
2023-03-23T20:09:00.163Z,21.00
2023-03-23T20:11:27.211Z,20.75
2023-03-23T20:13:54.081Z,18.20
2023-03-23T20:16:20.867Z,20.88
2023-03-23T20:18:47.710Z,22.10
2023-03-23T20:21:18.944Z,23.30
2023-03-23T20:23:46.874Z,19.85
2023-03-23T20:26:15.619Z,16.95
2023-03-23T20:28:42.795Z,14.07
2023-03-23T20:31:21.117Z,16.23
2023-03-23T20:34:01.109Z,15.50
2023-03-23T20:36:37.014Z,22.52
2023-03-23T20:39:05.527Z,30.73
2023-03-23T20:41:33.048Z,42.10
2023-03-23T20:43:59.848Z,72.63
2023-03-23T20:46:26.649Z,64.80
2023-03-23T20:48:53.360Z,54.00
2023-03-23T20:51:21.025Z,46.00
2023-03-23T20:53:48.704Z,51.45
2023-03-23T20:56:15.401Z,38.65
2023-03-23T20:58:42.642Z,58.20
2023-03-23T21:01:10.865Z,37.97
2023-03-23T21:03:40.373Z,43.92
2023-03-23T21:06:07.508Z,28.40
2023-03-23T21:08:36.240Z,59.97
2023-03-23T21:11:03.986Z,48.42
2023-03-23T21:13:30.875Z,53.70
2023-03-23T21:15:57.646Z,46.63
2023-03-23T21:18:24.285Z,38.20
2023-03-23T21:20:51.056Z,31.85
2023-03-23T21:23:19.509Z,29.02
2023-03-23T21:25:46.533Z,24.25
2023-03-23T21:28:13.603Z,26.40
2023-03-23T21:30:45.309Z,20.80
2023-03-23T21:33:13.217Z,19.52
2023-03-23T21:35:41.777Z,17.10
2023-03-23T21:38:14.425Z,30.45
2023-03-23T21:40:42.122Z,24.30
2023-03-23T21:43:14.797Z,20.50
2023-03-23T21:45:42.426Z,14.10
2023-03-23T21:48:11.398Z,15.90
2023-03-23T21:50:42.101Z,13.05
2023-03-23T21:53:12.865Z,13.68
2023-03-23T21:55:41.018Z,14.05
2023-03-23T21:58:09.665Z,15.63
2023-03-23T22:00:36.791Z,22.73
2023-03-23T22:03:04.821Z,18.23
2023-03-23T22:05:32.166Z,29.45
2023-03-23T22:07:58.985Z,42.92
2023-03-23T22:10:25.734Z,38.88
2023-03-23T22:12:54.396Z,19.75
2023-03-23T22:15:27.852Z,16.33
2023-03-23T22:17:55.299Z,14.05
2023-03-23T22:20:22.007Z,21.50
2023-03-23T22:22:48.797Z,20.27
2023-03-23T22:25:15.580Z,20.63
2023-03-23T22:27:42.846Z,21.73
2023-03-23T22:30:10.064Z,19.38
2023-03-23T22:32:36.923Z,17.98
2023-03-23T22:35:04.010Z,16.92
2023-03-23T22:37:30.935Z,16.20
2023-03-23T22:39:57.696Z,20.98
2023-03-23T22:42:24.536Z,19.35
2023-03-23T22:44:51.282Z,19.20
2023-03-23T22:47:17.975Z,14.43
2023-03-23T22:49:44.698Z,13.77
2023-03-23T22:52:11.460Z,14.02
2023-03-23T22:54:38.253Z,15.07
2023-03-23T22:57:04.971Z,12.32
2023-03-23T22:59:31.649Z,12.80
2023-03-23T23:01:58.416Z,13.13
2023-03-23T23:04:25.304Z,13.02
2023-03-23T23:07:00.379Z,11.88
2023-03-23T23:09:33.493Z,15.93
2023-03-23T23:12:00.273Z,10.73
2023-03-23T23:14:27.298Z,16.50
2023-03-23T23:16:54.088Z,22.02
2023-03-23T23:19:20.928Z,18.08
2023-03-23T23:21:47.617Z,15.85
2023-03-23T23:24:14.716Z,12.70
2023-03-23T23:26:42.045Z,14.77
2023-03-23T23:29:09.350Z,18.17
2023-03-23T23:31:35.982Z,20.20
2023-03-23T23:34:03.227Z,15.73
2023-03-23T23:36:30.552Z,15.75
2023-03-23T23:39:00.606Z,15.13
2023-03-23T23:41:27.861Z,14.85
2023-03-23T23:43:54.532Z,17.25
2023-03-23T23:46:21.590Z,14.52
2023-03-23T23:48:48.498Z,18.33
2023-03-23T23:51:16.603Z,10.98
2023-03-23T23:53:44.309Z,13.07
2023-03-23T23:56:11.655Z,16.30
2023-03-23T23:58:38.328Z,16.73
